Time;durP1;ratioP1;P1;durP2;ratioP2;P2;SDS_P1;SDS_P2;PMS_P1;PMS_P2;Temp;Humidity;BMP_temperature;BMP_pressure;BME280_temperature;BME280_humidity;BME280_pressure;Samples;Min_cycle;Max_cycle;Signal;HPM_P1;HPM_P2
2022/01/10 00:00:12;;;;;;;2.63;1.75;;;;;;;;;;5021764;28;20429;-85
2022/01/10 00:02:38;;;;;;;2.67;2.10;;;;;;;;;;5014816;28;20100;-84
2022/01/10 00:05:05;;;;;;;3.53;2.25;;;;;;;;;;5032564;28;20025;-87
2022/01/10 00:07:30;;;;;;;3.40;2.03;;;;;;;;;;5032679;28;20025;-86
2022/01/10 00:09:55;;;;;;;5.20;2.03;;;;;;;;;;5032709;28;20028;-84
2022/01/10 00:12:21;;;;;;;3.67;2.20;;;;;;;;;;5014876;28;20033;-85
2022/01/10 00:14:47;;;;;;;2.88;2.00;;;;;;;;;;5014444;28;20056;-84
2022/01/10 00:17:12;;;;;;;2.78;1.90;;;;;;;;;;5032371;28;20358;-84
2022/01/10 00:19:37;;;;;;;2.50;1.92;;;;;;;;;;5031704;28;20017;-83
2022/01/10 00:22:06;;;;;;;2.50;1.90;;;;;;;;;;5031969;28;20029;-84
2022/01/10 00:24:31;;;;;;;2.72;1.58;;;;;;;;;;5014083;28;20083;-83
2022/01/10 00:26:57;;;;;;;3.00;1.98;;;;;;;;;;5031786;28;20029;-83
2022/01/10 00:29:22;;;;;;;2.42;1.58;;;;;;;;;;5031885;28;20021;-83
2022/01/10 00:31:48;;;;;;;4.40;2.22;;;;;;;;;;5014492;28;20436;-82
2022/01/10 00:34:14;;;;;;;2.88;1.75;;;;;;;;;;5031784;28;20071;-84
2022/01/10 00:36:39;;;;;;;2.65;1.73;;;;;;;;;;5031848;28;20021;-82
2022/01/10 00:39:06;;;;;;;2.45;1.50;;;;;;;;;;5031857;28;20033;-83
2022/01/10 00:41:31;;;;;;;1.98;1.50;;;;;;;;;;5030404;28;20025;-85
2022/01/10 00:43:57;;;;;;;3.70;2.03;;;;;;;;;;5014146;28;20029;-82
2022/01/10 00:46:23;;;;;;;3.03;1.80;;;;;;;;;;5014213;28;20034;-84
2022/01/10 00:48:49;;;;;;;3.03;2.00;;;;;;;;;;5031364;28;20474;-84
2022/01/10 00:51:14;;;;;;;3.78;1.92;;;;;;;;;;5014172;28;20100;-85
2022/01/10 00:53:40;;;;;;;3.00;1.98;;;;;;;;;;5014450;28;20030;-84
2022/01/10 00:56:08;;;;;;;3.47;2.03;;;;;;;;;;5031538;28;20450;-83
2022/01/10 00:58:36;;;;;;;3.40;2.10;;;;;;;;;;5031477;28;20620;-84
2022/01/10 01:01:02;;;;;;;2.55;1.95;;;;;;;;;;5031919;28;20106;-84
2022/01/10 01:03:28;;;;;;;2.85;1.88;;;;;;;;;;5031539;28;20491;-84
2022/01/10 01:05:53;;;;;;;2.70;1.85;;;;;;;;;;5013873;28;20021;-85
2022/01/10 01:08:19;;;;;;;2.58;1.85;;;;;;;;;;5031246;28;20474;-84
2022/01/10 01:24:02;;;;;;;2.65;1.65;;;;;;;;;;5030918;28;20055;-83
2022/01/10 01:26:30;;;;;;;4.00;1.70;;;;;;;;;;5031484;28;20044;-83
2022/01/10 01:28:56;;;;;;;2.97;1.98;;;;;;;;;;5012853;28;20516;-84
2022/01/10 01:31:22;;;;;;;3.17;1.92;;;;;;;;;;5031649;28;20021;-85
2022/01/10 01:33:47;;;;;;;2.38;1.88;;;;;;;;;;5013952;28;20130;-84
2022/01/10 01:36:16;;;;;;;4.13;2.30;;;;;;;;;;5031650;28;20389;-83
2022/01/10 01:38:41;;;;;;;2.53;2.03;;;;;;;;;;5016399;28;20389;-84
2022/01/10 01:41:23;;;;;;;3.53;2.00;;;;;;;;;;5017614;28;20021;-83
2022/01/10 01:43:51;;;;;;;3.13;2.03;;;;;;;;;;5035312;28;20064;-85
2022/01/10 01:46:17;;;;;;;2.00;1.60;;;;;;;;;;5017629;28;20481;-82
2022/01/10 01:48:43;;;;;;;2.75;2.00;;;;;;;;;;5035510;28;20033;-85
2022/01/10 01:51:08;;;;;;;5.30;2.30;;;;;;;;;;5035100;28;20033;-85
2022/01/10 01:53:36;;;;;;;3.95;2.15;;;;;;;;;;5012496;28;20397;-83
2022/01/10 01:56:04;;;;;;;2.60;1.88;;;;;;;;;;5032662;28;20029;-84
2022/01/10 01:58:30;;;;;;;3.55;2.30;;;;;;;;;;5034576;28;20049;-84
2022/01/10 02:00:56;;;;;;;3.88;2.60;;;;;;;;;;5035123;28;20053;-82
2022/01/10 02:03:21;;;;;;;3.13;1.98;;;;;;;;;;5035271;28;20025;-83
2022/01/10 02:05:47;;;;;;;3.88;2.58;;;;;;;;;;5033531;28;20113;-83
2022/01/10 02:08:12;;;;;;;4.05;2.45;;;;;;;;;;5034780;28;20791;-84
2022/01/10 02:10:38;;;;;;;2.95;2.00;;;;;;;;;;5015809;28;20032;-82
2022/01/10 02:13:04;;;;;;;3.85;2.10;;;;;;;;;;5016744;28;20029;-82
2022/01/10 02:15:43;;;;;;;4.43;1.67;;;;;;;;;;5034449;28;20026;-83
2022/01/10 02:18:09;;;;;;;3.10;1.85;;;;;;;;;;5016164;28;20025;-83
2022/01/10 02:20:34;;;;;;;3.05;2.13;;;;;;;;;;5034572;28;20053;-82
2022/01/10 02:23:01;;;;;;;2.80;1.85;;;;;;;;;;5034524;28;20049;-84
2022/01/10 02:25:26;;;;;;;3.80;2.22;;;;;;;;;;5034416;28;20026;-83
2022/01/10 02:27:52;;;;;;;2.80;2.00;;;;;;;;;;5013349;28;20067;-83
2022/01/10 02:30:18;;;;;;;4.13;2.03;;;;;;;;;;5034099;28;20461;-84
2022/01/10 02:32:45;;;;;;;3.75;2.53;;;;;;;;;;5034487;28;20029;-82
2022/01/10 02:35:24;;;;;;;7.45;5.47;;;;;;;;;;5034943;28;20450;-83
2022/01/10 02:37:52;;;;;;;7.15;3.85;;;;;;;;;;5034236;28;20036;-82
2022/01/10 02:40:20;;;;;;;4.65;2.85;;;;;;;;;;5034146;28;20108;-83
2022/01/10 02:42:46;;;;;;;5.60;3.63;;;;;;;;;;5034110;28;20025;-82
2022/01/10 02:45:12;;;;;;;4.30;3.20;;;;;;;;;;5015922;28;20440;-82
2022/01/10 02:47:37;;;;;;;3.15;2.20;;;;;;;;;;5034027;28;20055;-82
2022/01/10 02:50:05;;;;;;;3.05;2.08;;;;;;;;;;5033885;28;20083;-82
2022/01/10 02:52:31;;;;;;;3.28;1.95;;;;;;;;;;5033868;28;20029;-81
2022/01/10 02:55:00;;;;;;;4.10;2.25;;;;;;;;;;5033850;28;20029;-82
2022/01/10 02:57:28;;;;;;;3.50;2.20;;;;;;;;;;5016051;28;20017;-83
2022/01/10 02:59:55;;;;;;;4.22;2.80;;;;;;;;;;5033744;28;20463;-82
2022/01/10 03:02:24;;;;;;;3.95;2.40;;;;;;;;;;5015975;28;20025;-83
2022/01/10 03:04:49;;;;;;;4.07;2.88;;;;;;;;;;5033608;28;20074;-83
2022/01/10 03:07:17;;;;;;;3.97;2.47;;;;;;;;;;5033787;28;20116;-82
2022/01/10 03:09:42;;;;;;;3.33;2.33;;;;;;;;;;5033327;28;20025;-81
2022/01/10 03:12:09;;;;;;;2.95;2.28;;;;;;;;;;5034174;28;20025;-83
2022/01/10 03:14:36;;;;;;;2.20;1.55;;;;;;;;;;5033308;28;20057;-83
2022/01/10 03:17:01;;;;;;;1.30;1.10;;;;;;;;;;5033721;28;20424;-84
2022/01/10 03:19:27;;;;;;;1.13;1.00;;;;;;;;;;5033208;28;20032;-84
2022/01/10 03:21:52;;;;;;;1.30;0.93;;;;;;;;;;5015385;28;20096;-83
2022/01/10 03:24:19;;;;;;;0.85;0.80;;;;;;;;;;5015707;28;20033;-84
2022/01/10 03:26:44;;;;;;;0.82;0.70;;;;;;;;;;5032121;28;20079;-82
2022/01/10 03:29:10;;;;;;;0.65;0.65;;;;;;;;;;5033109;28;20429;-84
2022/01/10 03:31:35;;;;;;;1.25;1.10;;;;;;;;;;5033204;28;20029;-82
2022/01/10 03:34:01;;;;;;;1.08;0.75;;;;;;;;;;5029118;28;20029;-81
2022/01/10 03:36:26;;;;;;;1.08;0.90;;;;;;;;;;5032953;28;20025;-82
2022/01/10 03:38:52;;;;;;;1.65;0.90;;;;;;;;;;5033341;28;20105;-82
2022/01/10 03:41:17;;;;;;;1.10;0.85;;;;;;;;;;5033188;28;20432;-82
2022/01/10 03:43:43;;;;;;;1.10;0.95;;;;;;;;;;5015200;28;20102;-83
2022/01/10 03:46:08;;;;;;;2.63;1.40;;;;;;;;;;5033150;28;20029;-82
2022/01/10 03:48:34;;;;;;;1.90;1.33;;;;;;;;;;5032927;28;20541;-82
2022/01/10 03:50:59;;;;;;;3.33;2.00;;;;;;;;;;5032488;28;20025;-82
2022/01/10 03:53:26;;;;;;;1.80;1.45;;;;;;;;;;5032993;28;20390;-82
2022/01/10 03:55:51;;;;;;;2.40;1.70;;;;;;;;;;5032629;28;20040;-82
2022/01/10 03:58:17;;;;;;;2.38;1.50;;;;;;;;;;5032684;28;20033;-82
2022/01/10 04:00:42;;;;;;;2.30;1.73;;;;;;;;;;5032349;28;20025;-83
2022/01/10 04:03:08;;;;;;;2.80;1.63;;;;;;;;;;5032620;28;20030;-83
2022/01/10 04:05:34;;;;;;;3.88;1.90;;;;;;;;;;5032627;28;20087;-84
2022/01/10 04:08:00;;;;;;;4.25;1.70;;;;;;;;;;5014825;28;20549;-85
2022/01/10 04:10:26;;;;;;;2.65;1.75;;;;;;;;;;5014871;28;20036;-84
2022/01/10 04:12:51;;;;;;;2.78;2.03;;;;;;;;;;5032890;28;20048;-84
2022/01/10 04:15:17;;;;;;;3.70;1.75;;;;;;;;;;5031159;28;20029;-85
2022/01/10 04:17:43;;;;;;;4.10;2.28;;;;;;;;;;5015138;28;20091;-83
2022/01/10 04:20:09;;;;;;;3.67;2.25;;;;;;;;;;5032573;28;20035;-84
2022/01/10 04:22:35;;;;;;;3.08;1.95;;;;;;;;;;5014093;28;20497;-83
2022/01/10 04:25:00;;;;;;;4.43;2.33;;;;;;;;;;5026868;28;20087;-83
2022/01/10 04:27:32;;;;;;;5.50;3.25;;;;;;;;;;5014906;28;20028;-83
2022/01/10 04:29:59;;;;;;;4.47;3.17;;;;;;;;;;5014547;28;20030;-84
2022/01/10 04:32:26;;;;;;;4.72;3.40;;;;;;;;;;5032577;28;20444;-85
2022/01/10 04:34:52;;;;;;;5.93;3.95;;;;;;;;;;5032017;28;20033;-82
2022/01/10 04:37:17;;;;;;;5.78;3.78;;;;;;;;;;5032067;28;20036;-83
2022/01/10 04:39:43;;;;;;;5.13;3.40;;;;;;;;;;5032019;28;20029;-82
2022/01/10 04:42:08;;;;;;;6.80;3.92;;;;;;;;;;5032435;28;20032;-83
2022/01/10 04:44:34;;;;;;;6.55;3.80;;;;;;;;;;5031549;28;20056;-82
2022/01/10 04:46:59;;;;;;;7.47;3.72;;;;;;;;;;5032180;28;20022;-82
2022/01/10 04:49:26;;;;;;;6.47;3.83;;;;;;;;;;5031821;28;20036;-84
2022/01/10 04:51:54;;;;;;;5.55;3.78;;;;;;;;;;5013558;28;20053;-83
2022/01/10 04:54:19;;;;;;;6.13;3.88;;;;;;;;;;5014311;28;20481;-83
2022/01/10 04:56:46;;;;;;;6.10;3.72;;;;;;;;;;5014175;28;20053;-84
2022/01/10 04:59:12;;;;;;;5.80;3.85;;;;;;;;;;5013867;28;20017;-83
2022/01/10 05:01:38;;;;;;;4.97;3.83;;;;;;;;;;5014447;28;20422;-82
2022/01/10 05:04:04;;;;;;;6.90;4.90;;;;;;;;;;5031414;28;20428;-83
2022/01/10 05:06:29;;;;;;;7.50;4.10;;;;;;;;;;5014129;28;20021;-84
2022/01/10 05:08:55;;;;;;;6.68;4.20;;;;;;;;;;5014391;28;20061;-83
2022/01/10 05:11:20;;;;;;;5.55;3.60;;;;;;;;;;5011285;28;20025;-82
2022/01/10 05:13:46;;;;;;;10.35;4.60;;;;;;;;;;5034658;28;20053;-82
2022/01/10 05:16:13;;;;;;;6.38;4.20;;;;;;;;;;5036032;28;20052;-82
2022/01/10 05:18:39;;;;;;;5.78;4.28;;;;;;;;;;5035268;28;20393;-83
2022/01/10 05:21:05;;;;;;;5.20;3.35;;;;;;;;;;5035771;28;20025;-81
2022/01/10 05:23:30;;;;;;;7.88;4.07;;;;;;;;;;5016385;28;20520;-84
2022/01/10 05:25:56;;;;;;;5.60;3.13;;;;;;;;;;5035441;28;20072;-83
2022/01/10 05:28:21;;;;;;;4.28;2.88;;;;;;;;;;5035488;28;20025;-84
2022/01/10 05:30:50;;;;;;;6.15;3.67;;;;;;;;;;5035658;28;20076;-82
2022/01/10 05:33:16;;;;;;;5.18;3.83;;;;;;;;;;5035511;28;20449;-82
2022/01/10 05:35:44;;;;;;;4.88;2.38;;;;;;;;;;5035155;28;20029;-84
2022/01/10 05:38:11;;;;;;;4.43;2.80;;;;;;;;;;5017062;28;20044;-83
2022/01/10 05:40:36;;;;;;;4.72;3.17;;;;;;;;;;5010353;28;20053;-82
2022/01/10 05:43:02;;;;;;;6.00;3.03;;;;;;;;;;5033781;28;20068;-83
2022/01/10 05:45:28;;;;;;;3.05;2.42;;;;;;;;;;5031938;28;20101;-82
2022/01/10 05:47:53;;;;;;;4.95;2.63;;;;;;;;;;5011255;28;20592;-82
2022/01/10 05:50:31;;;;;;;5.55;3.63;;;;;;;;;;5010299;28;20032;-82
2022/01/10 05:52:56;;;;;;;7.45;4.22;;;;;;;;;;5035172;28;20029;-82
2022/01/10 05:55:22;;;;;;;7.78;3.83;;;;;;;;;;5035269;28;20409;-82
2022/01/10 05:57:47;;;;;;;5.80;4.07;;;;;;;;;;5017565;28;20032;-82
2022/01/10 06:00:13;;;;;;;8.15;4.20;;;;;;;;;;5015308;28;20030;-83
2022/01/10 06:02:38;;;;;;;6.32;3.95;;;;;;;;;;5035236;28;20440;-82
2022/01/10 06:05:09;;;;;;;8.68;4.80;;;;;;;;;;5035141;28;20040;-82
2022/01/10 06:07:34;;;;;;;;;;;;;;;;;;5035393;28;20092;-82
2022/01/10 06:10:00;;;;;;;7.82;4.50;;;;;;;;;;5016565;28;19917;-83
2022/01/10 06:12:25;;;;;;;8.93;4.47;;;;;;;;;;5035643;28;20066;-83
2022/01/10 06:14:51;;;;;;;4.25;3.13;;;;;;;;;;5012694;28;20117;-83
2022/01/10 06:17:16;;;;;;;3.83;3.00;;;;;;;;;;5008756;28;20029;-84
2022/01/10 06:19:42;;;;;;;3.50;2.42;;;;;;;;;;5032947;28;20029;-83
2022/01/10 06:22:07;;;;;;;4.22;2.72;;;;;;;;;;5034496;28;20021;-84
2022/01/10 06:24:32;;;;;;;3.03;2.15;;;;;;;;;;5033774;28;20137;-82
2022/01/10 06:26:58;;;;;;;5.93;3.85;;;;;;;;;;5034608;28;20457;-84
2022/01/10 06:29:23;;;;;;;8.82;7.03;;;;;;;;;;5033747;28;20044;-86
2022/01/10 06:31:49;;;;;;;10.00;7.95;;;;;;;;;;5016677;28;20029;-85
2022/01/10 06:34:14;;;;;;;15.45;8.88;;;;;;;;;;5033665;28;20053;-85
2022/01/10 06:36:40;;;;;;;13.73;9.27;;;;;;;;;;5028491;28;20118;-85
2022/01/10 06:39:05;;;;;;;11.82;8.30;;;;;;;;;;5033660;28;20045;-85
2022/01/10 06:41:31;;;;;;;10.45;6.90;;;;;;;;;;5016543;28;20461;-85
2022/01/10 06:43:56;;;;;;;10.05;6.10;;;;;;;;;;5029603;28;20072;-85
2022/01/10 06:46:22;;;;;;;9.25;6.28;;;;;;;;;;5031966;28;20435;-83
2022/01/10 06:48:47;;;;;;;7.18;5.60;;;;;;;;;;5032838;28;20029;-84
2022/01/10 06:51:13;;;;;;;10.35;6.43;;;;;;;;;;5014508;28;20040;-83
2022/01/10 06:53:38;;;;;;;9.93;6.55;;;;;;;;;;5015573;28;20116;-83
2022/01/10 06:56:04;;;;;;;9.52;5.95;;;;;;;;;;5034275;28;20033;-81
2022/01/10 06:58:29;;;;;;;8.77;5.80;;;;;;;;;;5033060;28;20036;-82
2022/01/10 07:00:55;;;;;;;8.05;5.03;;;;;;;;;;5033732;28;20030;-83
2022/01/10 07:03:20;;;;;;;9.23;6.63;;;;;;;;;;5033940;28;20040;-82
2022/01/10 07:05:46;;;;;;;8.65;4.63;;;;;;;;;;5033439;28;20045;-82
2022/01/10 07:08:11;;;;;;;4.50;2.97;;;;;;;;;;5033019;28;20382;-83
2022/01/10 07:10:37;;;;;;;5.22;3.20;;;;;;;;;;5029433;28;20025;-82
2022/01/10 07:13:02;;;;;;;8.82;6.20;;;;;;;;;;5036045;28;20362;-82
2022/01/10 07:15:29;;;;;;;9.88;6.57;;;;;;;;;;5015220;28;20029;-82
2022/01/10 07:17:55;;;;;;;13.23;8.35;;;;;;;;;;5015595;28;20057;-82
2022/01/10 07:20:21;;;;;;;21.08;8.95;;;;;;;;;;5033649;28;20095;-82
2022/01/10 07:22:46;;;;;;;15.40;9.68;;;;;;;;;;5033360;28;20054;-83
2022/01/10 07:25:12;;;;;;;18.13;11.00;;;;;;;;;;5033524;28;20402;-82
2022/01/10 07:27:37;;;;;;;19.17;10.25;;;;;;;;;;5033231;28;20125;-82
2022/01/10 07:30:04;;;;;;;16.50;10.63;;;;;;;;;;5032949;28;20029;-83
2022/01/10 07:32:30;;;;;;;26.88;17.98;;;;;;;;;;5033145;28;20025;-82
2022/01/10 07:34:58;;;;;;;28.40;16.77;;;;;;;;;;5032765;28;20029;-82
2022/01/10 07:37:24;;;;;;;56.67;22.95;;;;;;;;;;5032941;28;20492;-83
2022/01/10 07:39:50;;;;;;;28.52;16.10;;;;;;;;;;5032909;28;20025;-83
2022/01/10 07:42:15;;;;;;;27.70;16.67;;;;;;;;;;5033091;28;20427;-82
2022/01/10 07:44:41;;;;;;;26.80;19.38;;;;;;;;;;5032905;28;20032;-82
2022/01/10 07:47:08;;;;;;;19.20;13.68;;;;;;;;;;5027184;28;20087;-82
2022/01/10 07:49:34;;;;;;;21.50;12.15;;;;;;;;;;5032007;28;20509;-81
2022/01/10 07:52:00;;;;;;;20.85;14.27;;;;;;;;;;5032230;28;20029;-80
2022/01/10 07:54:26;;;;;;;17.13;11.55;;;;;;;;;;5014984;28;20039;-81
2022/01/10 07:56:52;;;;;;;16.05;11.15;;;;;;;;;;5027926;28;20049;-81
2022/01/10 07:59:19;;;;;;;58.83;37.75;;;;;;;;;;5013682;28;20024;-81
2022/01/10 08:01:46;;;;;;;50.03;29.63;;;;;;;;;;5030263;28;20026;-81
2022/01/10 08:04:12;;;;;;;42.75;30.00;;;;;;;;;;5031684;28;20032;-81
2022/01/10 08:06:37;;;;;;;12.68;8.55;;;;;;;;;;5014745;28;20025;-81
2022/01/10 08:09:03;;;;;;;9.57;6.15;;;;;;;;;;5030200;28;20094;-81
2022/01/10 08:11:29;;;;;;;11.00;7.47;;;;;;;;;;5034249;28;20025;-81
2022/01/10 08:13:55;;;;;;;12.43;8.15;;;;;;;;;;5032229;28;20529;-82
2022/01/10 08:16:21;;;;;;;30.08;11.15;;;;;;;;;;5032278;28;20104;-81
2022/01/10 08:18:46;;;;;;;31.60;10.75;;;;;;;;;;5013937;28;20033;-83
2022/01/10 08:21:13;;;;;;;79.10;14.85;;;;;;;;;;5013998;28;20032;-82
2022/01/10 08:23:38;;;;;;;47.42;14.35;;;;;;;;;;5030654;28;20072;-81
2022/01/10 08:26:07;;;;;;;25.60;11.27;;;;;;;;;;5008834;28;20469;-81
2022/01/10 08:28:33;;;;;;;26.65;11.93;;;;;;;;;;5030575;28;20499;-81
2022/01/10 08:31:01;;;;;;;23.73;11.48;;;;;;;;;;5032068;28;20021;-86
2022/01/10 08:33:26;;;;;;;17.98;11.07;;;;;;;;;;5016409;28;20037;-85
2022/01/10 08:35:52;;;;;;;18.42;10.80;;;;;;;;;;5016538;28;20075;-80
2022/01/10 08:38:18;;;;;;;28.52;10.13;;;;;;;;;;5031507;28;20531;-80
2022/01/10 08:40:44;;;;;;;48.38;14.10;;;;;;;;;;5013649;28;20719;-80
2022/01/10 08:43:10;;;;;;;33.20;11.13;;;;;;;;;;5031065;28;20092;-80
2022/01/10 08:45:39;;;;;;;26.73;10.52;;;;;;;;;;5010954;28;20116;-81
2022/01/10 08:48:06;;;;;;;43.42;13.27;;;;;;;;;;5030323;28;20033;-80
2022/01/10 08:50:33;;;;;;;18.35;10.70;;;;;;;;;;5031422;28;20140;-80
2022/01/10 08:53:00;;;;;;;17.88;9.38;;;;;;;;;;5031027;28;20492;-80
2022/01/10 08:55:26;;;;;;;13.02;7.85;;;;;;;;;;5031270;28;20025;-81
2022/01/10 08:57:51;;;;;;;20.50;10.30;;;;;;;;;;5030516;28;20037;-80
2022/01/10 09:00:17;;;;;;;17.90;10.55;;;;;;;;;;5031149;28;20029;-80
2022/01/10 09:02:42;;;;;;;19.17;9.68;;;;;;;;;;5031587;28;20033;-82
2022/01/10 09:05:09;;;;;;;17.95;9.95;;;;;;;;;;5030815;28;20112;-81
2022/01/10 09:07:35;;;;;;;16.45;9.00;;;;;;;;;;5030874;28;20053;-81
2022/01/10 09:10:00;;;;;;;16.30;8.75;;;;;;;;;;5030462;28;20069;-81
2022/01/10 09:12:26;;;;;;;12.75;7.70;;;;;;;;;;5030936;28;20049;-79
2022/01/10 09:14:52;;;;;;;25.88;9.43;;;;;;;;;;5030857;28;20092;-79
2022/01/10 09:17:18;;;;;;;13.75;7.90;;;;;;;;;;5030704;28;20031;-79
2022/01/10 09:19:43;;;;;;;14.95;8.43;;;;;;;;;;5030494;28;20021;-81
2022/01/10 09:22:09;;;;;;;38.78;16.77;;;;;;;;;;5027630;28;20060;-79
2022/01/10 09:24:34;;;;;;;37.88;24.27;;;;;;;;;;5029036;28;20431;-80
2022/01/10 09:27:00;;;;;;;64.72;35.17;;;;;;;;;;5029212;28;20021;-81
2022/01/10 09:29:25;;;;;;;26.42;12.90;;;;;;;;;;5031064;28;20025;-81
2022/01/10 09:31:51;;;;;;;16.27;8.90;;;;;;;;;;5031124;28;20420;-81
2022/01/10 09:34:17;;;;;;;15.57;9.55;;;;;;;;;;5030060;28;20048;-81
2022/01/10 09:36:42;;;;;;;19.35;9.95;;;;;;;;;;5030972;28;20025;-81
2022/01/10 09:39:09;;;;;;;16.20;9.05;;;;;;;;;;5029893;28;20018;-81
2022/01/10 09:41:35;;;;;;;15.35;8.90;;;;;;;;;;5029402;28;20029;-82
2022/01/10 09:44:03;;;;;;;22.63;10.80;;;;;;;;;;5031062;28;20025;-82
2022/01/10 09:46:30;;;;;;;16.88;10.68;;;;;;;;;;5030029;28;20028;-81
2022/01/10 09:48:59;;;;;;;23.42;12.80;;;;;;;;;;5030859;28;20037;-80
2022/01/10 09:51:26;;;;;;;18.95;10.35;;;;;;;;;;5030528;28;20029;-84
2022/01/10 09:53:53;;;;;;;14.45;7.60;;;;;;;;;;5030895;28;20032;-82
2022/01/10 09:56:19;;;;;;;15.40;8.98;;;;;;;;;;5012992;28;20030;-82
2022/01/10 09:58:44;;;;;;;16.63;8.90;;;;;;;;;;5013090;28;20025;-81
2022/01/10 10:01:13;;;;;;;12.43;8.13;;;;;;;;;;5033825;28;20380;-81
2022/01/10 10:03:38;;;;;;;14.80;10.25;;;;;;;;;;5034070;28;20042;-81
2022/01/10 10:06:05;;;;;;;14.60;7.78;;;;;;;;;;5028685;28;20064;-80
2022/01/10 10:08:30;;;;;;;15.23;8.73;;;;;;;;;;5037394;28;20481;-81
2022/01/10 10:10:56;;;;;;;15.25;8.55;;;;;;;;;;5035028;28;20026;-81
2022/01/10 10:13:22;;;;;;;16.90;8.15;;;;;;;;;;5033509;28;20100;-82
2022/01/10 10:15:48;;;;;;;12.60;8.55;;;;;;;;;;5033272;28;20025;-81
2022/01/10 10:18:16;;;;;;;14.57;10.00;;;;;;;;;;5033297;28;20108;-81
2022/01/10 10:20:43;;;;;;;58.75;36.17;;;;;;;;;;5034381;28;20029;-81
2022/01/10 10:23:14;;;;;;;36.53;21.67;;;;;;;;;;5020843;28;20045;-81
2022/01/10 10:25:51;;;;;;;32.80;21.23;;;;;;;;;;5033231;28;20029;-81
2022/01/10 10:28:20;;;;;;;24.65;13.63;;;;;;;;;;5032665;28;20052;-81
2022/01/10 10:30:45;;;;;;;26.70;14.05;;;;;;;;;;5015666;28;20025;-80
2022/01/10 10:33:11;;;;;;;18.55;11.18;;;;;;;;;;5033358;28;20460;-81
2022/01/10 10:35:37;;;;;;;18.60;9.65;;;;;;;;;;5015718;28;20063;-81
2022/01/10 10:38:02;;;;;;;30.80;15.77;;;;;;;;;;5013213;28;20485;-81
2022/01/10 10:40:29;;;;;;;31.17;14.82;;;;;;;;;;5033448;28;20022;-80
2022/01/10 10:42:58;;;;;;;48.10;20.90;;;;;;;;;;5032945;28;20025;-81
2022/01/10 10:45:26;;;;;;;34.88;22.30;;;;;;;;;;5032228;28;20029;-81
2022/01/10 10:47:51;;;;;;;32.05;20.23;;;;;;;;;;5015548;28;20473;-80
2022/01/10 10:50:17;;;;;;;33.92;15.77;;;;;;;;;;5033281;28;20025;-81
2022/01/10 10:52:43;;;;;;;73.25;18.60;;;;;;;;;;5033547;28;20021;-81
2022/01/10 10:55:14;;;;;;;44.45;14.13;;;;;;;;;;5015238;28;20385;-81
2022/01/10 10:57:41;;;;;;;42.80;14.07;;;;;;;;;;5032884;28;20075;-80
2022/01/10 11:00:14;;;;;;;23.52;12.02;;;;;;;;;;5033179;28;20026;-81
2022/01/10 11:02:40;;;;;;;29.30;12.85;;;;;;;;;;5028399;28;20026;-82
2022/01/10 11:05:07;;;;;;;52.65;15.75;;;;;;;;;;5032008;28;20115;-81
2022/01/10 11:07:35;;;;;;;28.10;15.90;;;;;;;;;;5037792;28;20048;-80
2022/01/10 11:10:05;;;;;;;27.42;13.20;;;;;;;;;;5032678;28;20037;-81
2022/01/10 11:12:34;;;;;;;77.38;17.65;;;;;;;;;;5032488;28;20029;-81
2022/01/10 11:15:01;;;;;;;42.47;14.38;;;;;;;;;;5013095;28;20469;-82
2022/01/10 11:17:28;;;;;;;32.55;11.43;;;;;;;;;;5033044;28;20028;-82
2022/01/10 11:20:16;;;;;;;46.00;15.15;;;;;;;;;;5032644;28;20532;-81
2022/01/10 11:22:50;;;;;;;45.60;16.35;;;;;;;;;;5032153;28;20043;-81
2022/01/10 11:25:28;;;;;;;79.88;16.38;;;;;;;;;;5029515;28;20025;-81
2022/01/10 11:28:00;;;;;;;70.18;15.30;;;;;;;;;;5013086;28;20381;-80
2022/01/10 11:30:33;;;;;;;82.18;16.58;;;;;;;;;;5009651;28;20022;-81
2022/01/10 11:33:04;;;;;;;124.70;20.58;;;;;;;;;;5031920;28;20017;-80
2022/01/10 11:35:35;;;;;;;54.35;14.15;;;;;;;;;;5014805;28;20029;-80
2022/01/10 11:38:16;;;;;;;198.60;30.85;;;;;;;;;;5030258;28;20023;-80
2022/01/10 11:40:42;;;;;;;136.98;21.38;;;;;;;;;;5030981;28;20485;-79
2022/01/10 11:43:25;;;;;;;156.90;21.05;;;;;;;;;;5032256;28;20028;-80
2022/01/10 11:46:06;;;;;;;242.40;29.50;;;;;;;;;;5011632;28;20032;-80
2022/01/10 11:48:44;;;;;;;136.70;43.97;;;;;;;;;;5027580;28;20075;-80
2022/01/10 11:51:19;;;;;;;123.25;30.00;;;;;;;;;;5032162;28;20105;-81
2022/01/10 11:53:49;;;;;;;119.60;24.35;;;;;;;;;;5031550;28;20025;-80
2022/01/10 11:56:23;;;;;;;123.07;20.70;;;;;;;;;;5014685;28;20083;-81
2022/01/10 11:59:15;;;;;;;58.00;14.95;;;;;;;;;;5031453;28;20033;-81
2022/01/10 12:01:45;;;;;;;111.47;19.20;;;;;;;;;;5017259;28;20140;-80
2022/01/10 12:04:10;;;;;;;54.58;14.27;;;;;;;;;;5013456;28;20370;-81
2022/01/10 12:06:36;;;;;;;99.07;20.92;;;;;;;;;;5032432;28;20037;-79
2022/01/10 12:09:03;;;;;;;74.80;19.33;;;;;;;;;;5034521;28;20029;-80
2022/01/10 12:11:29;;;;;;;46.47;17.83;;;;;;;;;;5031697;28;20025;-80
2022/01/10 12:13:56;;;;;;;106.45;20.60;;;;;;;;;;5032152;28;20029;-82
2022/01/10 12:16:22;;;;;;;55.00;13.93;;;;;;;;;;5032347;28;20527;-80
2022/01/10 12:18:49;;;;;;;28.45;12.95;;;;;;;;;;5031158;28;20112;-80
2022/01/10 12:21:15;;;;;;;29.92;18.42;;;;;;;;;;5013386;28;20032;-82
2022/01/10 12:23:41;;;;;;;13.18;6.90;;;;;;;;;;5030621;28;20045;-82
2022/01/10 12:26:07;;;;;;;11.57;7.78;;;;;;;;;;5013393;28;21853;-81
2022/01/10 12:28:33;;;;;;;11.25;7.80;;;;;;;;;;5013397;28;20108;-82
2022/01/10 12:31:02;;;;;;;12.05;9.60;;;;;;;;;;5030819;28;20113;-80
2022/01/10 12:33:31;;;;;;;9.73;7.40;;;;;;;;;;5030902;28;20031;-80
2022/01/10 12:35:57;;;;;;;30.83;24.35;;;;;;;;;;5008270;28;20025;-80
2022/01/10 12:38:24;;;;;;;13.13;9.68;;;;;;;;;;5032135;28;20480;-81
2022/01/10 12:40:52;;;;;;;17.77;14.70;;;;;;;;;;5013955;28;20032;-81
2022/01/10 12:43:18;;;;;;;13.35;9.77;;;;;;;;;;5029825;28;20033;-82
2022/01/10 12:45:45;;;;;;;9.40;6.63;;;;;;;;;;5028608;28;20036;-81
2022/01/10 12:48:12;;;;;;;12.98;8.93;;;;;;;;;;5012292;28;20034;-82
2022/01/10 12:50:39;;;;;;;13.60;9.75;;;;;;;;;;5031359;28;20500;-81
2022/01/10 12:53:05;;;;;;;16.02;11.43;;;;;;;;;;5031032;28;20048;-81
2022/01/10 12:55:31;;;;;;;14.57;8.48;;;;;;;;;;5031350;28;20021;-82
2022/01/10 12:57:56;;;;;;;10.60;7.28;;;;;;;;;;5030469;28;20057;-82
2022/01/10 13:00:22;;;;;;;12.15;7.18;;;;;;;;;;5031220;28;20044;-82
2022/01/10 13:02:48;;;;;;;8.98;5.85;;;;;;;;;;5031543;28;20032;-82
2022/01/10 13:05:15;;;;;;;8.80;6.45;;;;;;;;;;5031533;28;20036;-82
2022/01/10 13:07:43;;;;;;;7.55;5.65;;;;;;;;;;5008266;28;20022;-82
2022/01/10 13:10:17;;;;;;;13.77;9.90;;;;;;;;;;5030955;28;20021;-82
2022/01/10 13:12:47;;;;;;;11.20;7.00;;;;;;;;;;5031382;28;20060;-82
2022/01/10 13:15:14;;;;;;;12.75;8.45;;;;;;;;;;5030419;28;20033;-82
2022/01/10 13:17:52;;;;;;;8.77;6.50;;;;;;;;;;5031493;28;20124;-82
2022/01/10 13:20:20;;;;;;;6.95;4.30;;;;;;;;;;5028465;28;20022;-82
2022/01/10 13:22:46;;;;;;;7.25;4.90;;;;;;;;;;5031205;28;20064;-83
2022/01/10 13:25:14;;;;;;;7.25;4.85;;;;;;;;;;5025206;28;20030;-82
2022/01/10 13:27:41;;;;;;;8.55;4.82;;;;;;;;;;5033731;28;20087;-81
2022/01/10 13:30:11;;;;;;;6.63;4.40;;;;;;;;;;5037566;28;20382;-83
2022/01/10 13:32:36;;;;;;;15.35;7.40;;;;;;;;;;5035840;28;20457;-82
2022/01/10 13:35:06;;;;;;;20.25;15.27;;;;;;;;;;5014275;28;20029;-82
2022/01/10 13:37:42;;;;;;;;;;;;;;;;;;5028028;28;20087;-83
2022/01/10 13:40:19;;;;;;;6.95;5.05;;;;;;;;;;5034515;28;20316;-83
2022/01/10 13:42:50;;;;;;;8.18;4.97;;;;;;;;;;5033019;28;20033;-84
2022/01/10 13:45:42;;;;;;;6.72;3.83;;;;;;;;;;5031898;28;20013;-83
2022/01/10 13:48:16;;;;;;;4.05;2.70;;;;;;;;;;5013937;28;20025;-83
2022/01/10 13:50:45;;;;;;;3.55;2.53;;;;;;;;;;5017334;28;20034;-82
2022/01/10 13:53:27;;;;;;;2.40;1.77;;;;;;;;;;5034504;28;20474;-82
2022/01/10 13:56:24;;;;;;;2.30;1.30;;;;;;;;;;5038932;28;20052;-81
2022/01/10 13:59:04;;;;;;;1.73;0.90;;;;;;;;;;5019328;28;20393;-82
2022/01/10 14:01:36;;;;;;;1.33;0.93;;;;;;;;;;5023132;28;20028;-82
2022/01/10 14:04:32;;;;;;;1.13;0.90;;;;;;;;;;5030077;28;20017;-82
2022/01/10 14:06:58;;;;;;;1.58;0.95;;;;;;;;;;5034081;28;20029;-82
2022/01/10 14:09:29;;;;;;;22.13;14.10;;;;;;;;;;5033746;28;20033;-82
2022/01/10 14:11:55;;;;;;;16.90;12.73;;;;;;;;;;5034385;28;20826;-82
2022/01/10 14:14:20;;;;;;;26.88;20.50;;;;;;;;;;5018674;28;20393;-82
2022/01/10 14:16:49;;;;;;;6.60;4.82;;;;;;;;;;5034554;28;20033;-82
2022/01/10 14:19:16;;;;;;;1.83;1.40;;;;;;;;;;5034103;28;20028;-82
2022/01/10 14:21:43;;;;;;;2.05;1.17;;;;;;;;;;5018202;28;20470;-82
2022/01/10 14:24:08;;;;;;;1.30;1.08;;;;;;;;;;5033803;28;20041;-82
2022/01/10 14:26:35;;;;;;;0.90;0.70;;;;;;;;;;5034155;28;20116;-82
2022/01/10 14:29:03;;;;;;;1.77;0.93;;;;;;;;;;5012829;28;20030;-82
2022/01/10 14:31:30;;;;;;;2.90;1.85;;;;;;;;;;5034158;28;20421;-82
2022/01/10 14:33:56;;;;;;;3.72;2.00;;;;;;;;;;5033740;28;20030;-82
2022/01/10 14:36:22;;;;;;;3.33;1.60;;;;;;;;;;5037749;28;20025;-82
2022/01/10 14:38:48;;;;;;;3.88;2.30;;;;;;;;;;5034570;28;20043;-83
2022/01/10 14:41:14;;;;;;;4.50;2.63;;;;;;;;;;5015476;28;20485;-82
2022/01/10 14:43:40;;;;;;;5.53;3.33;;;;;;;;;;5017827;28;20029;-82
2022/01/10 14:46:08;;;;;;;8.48;4.97;;;;;;;;;;5016055;28;20080;-82